Briefing drone pour Cavaillon

Rechercher une autre localisation

Conditions de vol :


Nous sommes le : Vendredi 19 avril 2024
Il est 21:35 UTC (23:35 LT)

Lever de soleil : 04:22 UTC (06:22 LT)
Coucher de soleil : 18:55 UTC (20:55 LT)

Météo

L'essentiel des conditions de vol

VIGILANCE MÉTÉO FRANCE - Vaucluse (84)
Pas de vigilances particulieres
METAR de LFMV
LFMV 192130Z AUTO 34007KT CAVOK 10/02 Q1015

Date d'émission: 19/04/2024
Heure d'émission: 21:30 UTC
Vent: 340° pour 7 KT (13 km/h)
Visibilité horizontale: > 10 km
Plafond : Plafond et visibilité OK (CAVOK)
Température: 10 °C
Point de rosée: 2 °C
Humidité: 58%
Pression (QNH): 1015 hPa
TAF de LFMV
AMD LFMV 192002Z 1920/2015 CNL

Conditions prévues :

Heure d'émission : Bulletin éffectué le 19 à 20:00 UTC
Prévision : Valide du 19 a 20:00 UTC au 20 a 15:00 UTC
Nuages : à 0ft (0 m)
WEBCAM POUR CAVAILLON

Réglementation

Voler en sécurité

CARTES AERONAUTIQUE 1/500.000
CARTE AZBA (Reseau basse altitude)
CARTES VAC (LFMV)
SUP AIP




Chargement des AIP...
NOTAM (CAVAILLON + Terrain à proximité / FIR )




Chargement des NOTAMS...
CONTACT PREFECTURE 84
Vaucluse (84) : [email protected]


Avertissement : Les données mises à disposition sont indicatives. Oxygène Drone ne pourra être tenu responsable de dégâts causés aux biens et aux personnes.